Time;durP1;ratioP1;P1;durP2;ratioP2;P2;SDS_P1;SDS_P2;PMS_P1;PMS_P2;Temp;Humidity;BMP_temperature;BMP_pressure;BME280_temperature;BME280_humidity;BME280_pressure;Samples;Min_cycle;Max_cycle;Signal;HPM_P1;HPM_P2
2022/07/27 04:05:29;;;;;;;4.80;3.90;;;17.80;99.90;;;;;;5055106;22;20505;-61
2022/07/27 04:07:54;;;;;;;3.73;3.00;;;17.70;99.90;;;;;;5015640;28;20408;-61
2022/07/27 04:10:20;;;;;;;4.40;2.67;;;17.80;99.90;;;;;;5015553;28;20522;-61
2022/07/27 04:12:45;;;;;;;3.40;3.10;;;17.80;99.90;;;;;;5015198;28;20175;-60
2022/07/27 04:15:11;;;;;;;3.40;3.10;;;17.80;99.90;;;;;;5015403;28;20196;-61
2022/07/27 04:17:37;;;;;;;3.33;3.10;;;17.80;99.90;;;;;;5012553;28;20168;-63
2022/07/27 04:20:03;;;;;;;2.90;2.70;;;17.80;99.90;;;;;;5002153;28;20204;-62
2022/07/27 04:22:29;;;;;;;3.30;3.00;;;17.90;99.90;;;;;;5014668;28;20222;-63
2022/07/27 04:24:54;;;;;;;3.23;3.03;;;18.00;99.90;;;;;;5015357;28;20453;-63
2022/07/27 04:27:20;;;;;;;3.23;2.90;;;18.00;99.90;;;;;;5014719;28;20532;-63
2022/07/27 04:29:46;;;;;;;3.33;3.10;;;18.10;99.90;;;;;;5008437;28;20180;-63
2022/07/27 04:32:11;;;;;;;3.47;2.90;;;18.10;99.90;;;;;;4995365;28;20175;-63
2022/07/27 04:34:37;;;;;;;3.40;3.10;;;18.10;99.90;;;;;;4994105;28;20247;-62
2022/07/27 04:37:02;;;;;;;3.60;3.20;;;18.10;99.90;;;;;;4995272;28;20221;-62
2022/07/27 04:39:28;;;;;;;3.50;3.30;;;18.20;99.90;;;;;;5011640;28;20216;-62
2022/07/27 04:41:54;;;;;;;3.50;3.20;;;18.30;99.90;;;;;;5014943;28;20173;-62
2022/07/27 04:44:19;;;;;;;4.17;3.23;;;18.30;99.90;;;;;;5014404;28;20196;-62
2022/07/27 04:46:45;;;;;;;4.00;3.70;;;18.30;99.90;;;;;;5006912;28;20200;-62
2022/07/27 04:49:10;;;;;;;4.03;3.67;;;18.30;99.90;;;;;;4995114;28;20177;-62
2022/07/27 04:51:36;;;;;;;4.00;3.70;;;18.30;99.90;;;;;;4995350;28;20184;-62
2022/07/27 04:54:02;;;;;;;3.40;3.10;;;18.20;99.90;;;;;;4994910;28;20200;-62
2022/07/27 04:56:28;;;;;;;4.47;3.17;;;18.10;99.90;;;;;;4996132;28;20203;-63
2022/07/27 04:58:56;;;;;;;3.90;3.60;;;18.10;99.90;;;;;;4994934;28;20418;-62
2022/07/27 05:01:22;;;;;;;3.63;3.37;;;18.20;99.90;;;;;;4998442;28;20534;-63
2022/07/27 05:03:47;;;;;;;3.37;3.13;;;18.20;99.90;;;;;;5002713;28;20424;-62
2022/07/27 05:06:13;;;;;;;3.77;3.37;;;18.20;99.90;;;;;;4995140;28;20240;-62
2022/07/27 05:08:39;;;;;;;3.83;3.57;;;18.20;99.90;;;;;;4994999;28;20201;-62
2022/07/27 05:11:04;;;;;;;3.87;3.57;;;18.20;99.90;;;;;;4993816;28;20174;-62
2022/07/27 05:13:30;;;;;;;3.53;3.23;;;18.20;99.90;;;;;;5004670;28;20635;-61
2022/07/27 05:15:56;;;;;;;4.17;3.77;;;18.10;99.90;;;;;;5004237;28;20212;-61
2022/07/27 05:18:22;;;;;;;3.60;3.30;;;18.10;99.90;;;;;;5014207;28;20644;-61
2022/07/27 05:20:47;;;;;;;4.13;3.53;;;18.20;99.90;;;;;;4998878;28;20215;-61
2022/07/27 05:23:13;;;;;;;4.40;3.43;;;18.20;99.90;;;;;;4994023;28;20408;-61
2022/07/27 05:25:39;;;;;;;3.87;3.57;;;18.20;99.90;;;;;;4994910;28;20175;-61
2022/07/27 05:28:04;;;;;;;3.50;3.20;;;18.30;99.90;;;;;;5004775;28;20185;-61
2022/07/27 05:30:30;;;;;;;3.60;3.30;;;18.30;99.90;;;;;;5013939;28;20177;-61
2022/07/27 05:32:56;;;;;;;3.63;3.33;;;18.30;99.90;;;;;;5013557;28;20700;-61
2022/07/27 05:35:21;;;;;;;3.63;3.33;;;18.40;99.90;;;;;;5013341;28;20678;-62
2022/07/27 05:37:47;;;;;;;4.70;3.90;;;18.50;99.90;;;;;;5008080;28;20257;-62
2022/07/27 05:40:13;;;;;;;3.70;3.40;;;18.50;99.90;;;;;;5003534;28;20209;-63
2022/07/27 05:42:42;;;;;;;4.13;3.33;;;18.60;99.90;;;;;;4993875;28;20538;-64
2022/07/27 05:45:09;;;;;;;4.27;3.27;;;18.60;99.90;;;;;;4995163;28;20206;-63
2022/07/27 05:47:34;;;;;;;3.17;2.90;;;18.70;99.90;;;;;;5009334;28;20403;-63
2022/07/27 05:50:00;;;;;;;4.17;3.97;;;18.80;99.90;;;;;;4994517;28;20430;-64
2022/07/27 05:52:25;;;;;;;3.93;3.70;;;18.80;99.90;;;;;;4993339;28;20240;-64
2022/07/27 05:54:51;;;;;;;3.90;3.50;;;18.90;99.90;;;;;;4993981;28;20195;-63
2022/07/27 05:57:17;;;;;;;3.67;3.33;;;18.90;99.90;;;;;;5011735;28;20297;-63
2022/07/27 05:59:42;;;;;;;3.40;3.07;;;19.00;99.90;;;;;;5004270;28;20201;-62
2022/07/27 06:02:08;;;;;;;3.77;3.47;;;19.10;99.90;;;;;;5006139;28;20271;-63
2022/07/27 06:04:34;;;;;;;3.50;3.30;;;19.20;99.90;;;;;;5005786;28;20203;-63
2022/07/27 06:09:44;;;;;;;3.80;3.50;;;19.40;99.90;;;;;;5013532;28;20545;-64
2022/07/27 06:12:11;;;;;;;3.67;3.40;;;19.40;99.90;;;;;;5012206;28;20496;-64
2022/07/27 06:14:37;;;;;;;4.37;3.00;;;19.40;99.90;;;;;;5013303;28;20195;-63
2022/07/27 06:17:03;;;;;;;3.30;3.00;;;19.40;99.90;;;;;;5013510;28;20428;-64
2022/07/27 06:19:30;;;;;;;3.60;3.40;;;19.30;99.90;;;;;;5013421;28;20972;-64
2022/07/27 06:21:56;;;;;;;5.43;3.40;;;19.30;99.90;;;;;;5013536;28;20166;-66
2022/07/27 06:24:21;;;;;;;3.73;3.33;;;19.30;99.90;;;;;;5013072;28;20929;-65
2022/07/27 06:26:47;;;;;;;5.50;3.90;;;19.30;99.90;;;;;;5014812;28;20943;-65
2022/07/27 06:29:13;;;;;;;3.17;2.97;;;19.30;99.90;;;;;;5017466;28;20641;-66
2022/07/27 06:31:39;;;;;;;4.10;2.80;;;19.50;99.90;;;;;;5017442;28;20577;-65
2022/07/27 06:34:04;;;;;;;4.90;3.40;;;19.60;99.90;;;;;;5017142;28;20433;-65
2022/07/27 06:36:30;;;;;;;3.50;3.20;;;19.70;99.90;;;;;;5015983;28;20209;-65
2022/07/27 06:42:47;;;;;;;2.93;2.73;;;19.80;99.90;;;;;;4980751;28;20213;-64
2022/07/27 06:45:12;;;;;;;3.17;2.90;;;19.90;99.90;;;;;;4998627;28;20477;-64
2022/07/27 06:47:39;;;;;;;3.80;3.50;;;20.00;99.90;;;;;;5016572;28;20195;-64
2022/07/27 06:50:06;;;;;;;3.60;3.20;;;20.00;99.90;;;;;;5017281;28;20286;-65
2022/07/27 06:52:31;;;;;;;4.03;3.63;;;20.10;99.90;;;;;;5016760;28;20504;-64
2022/07/27 06:54:57;;;;;;;3.13;3.03;;;20.20;99.90;;;;;;5016960;28;20847;-65
2022/07/27 06:57:23;;;;;;;3.37;3.07;;;20.20;99.90;;;;;;5017012;28;20290;-65
2022/07/27 06:59:49;;;;;;;3.20;3.00;;;20.40;99.90;;;;;;5016910;28;20198;-64
2022/07/27 07:02:18;;;;;;;3.23;3.03;;;20.60;99.90;;;;;;5015524;28;20523;-66
2022/07/27 07:04:44;;;;;;;3.20;3.00;;;20.70;99.90;;;;;;5015397;28;20607;-66
2022/07/27 07:07:10;;;;;;;3.33;3.13;;;20.80;99.90;;;;;;5016819;28;20407;-66
2022/07/27 07:09:36;;;;;;;3.13;2.93;;;;;;;;;;5016841;28;20172;-67
2022/07/27 07:12:02;;;;;;;2.97;2.77;;;;;;;;;;5015248;28;20183;-65
2022/07/27 07:14:28;;;;;;;3.10;2.90;;;;;;;;;;5016247;28;20426;-66
2022/07/27 07:16:54;;;;;;;3.77;3.47;;;;;;;;;;5015254;28;20425;-66
2022/07/27 07:19:20;;;;;;;3.27;3.07;;;;;;;;;;5016429;28;20452;-66
2022/07/27 07:21:46;;;;;;;4.00;3.00;;;;;;;;;;5016675;28;20409;-65
2022/07/27 07:24:12;;;;;;;2.97;2.80;;;;;;;;;;5016260;28;20459;-65
2022/07/27 07:26:39;;;;;;;4.00;3.70;;;;;;;;;;5015097;28;20433;-65
2022/07/27 07:29:05;;;;;;;3.30;3.00;;;;;;;;;;5016468;28;20890;-65
2022/07/27 07:31:31;;;;;;;4.27;3.40;;;;;;;;;;5016136;28;20761;-67
2022/07/27 07:33:58;;;;;;;3.20;3.00;;;;;;;;;;5015902;28;20438;-64
2022/07/27 07:36:24;;;;;;;3.67;3.37;;;;;;;;;;5016207;28;20762;-65
2022/07/27 07:38:50;;;;;;;3.80;3.10;;;;;;;;;;5015589;28;20383;-66
2022/07/27 07:41:16;;;;;;;3.03;2.83;;;;;;;;;;5015982;28;20380;-65
2022/07/27 07:43:42;;;;;;;4.77;3.20;;;;;;;;;;5015744;28;20422;-66
2022/07/27 07:46:08;;;;;;;2.90;2.70;;;;;;;;;;5016140;28;20763;-64
2022/07/27 07:48:34;;;;;;;3.47;3.27;;;;;;;;;;5016026;28;20481;-66
2022/07/27 07:51:00;;;;;;;3.40;3.20;;;;;;;;;;5016243;28;20511;-64
2022/07/27 07:53:26;;;;;;;3.10;2.90;;;;;;;;;;5015876;28;20399;-66
2022/07/27 07:55:54;;;;;;;3.40;3.20;;;;;;;;;;5014677;28;20421;-66
2022/07/27 07:58:21;;;;;;;3.60;3.30;;;;;;;;;;5015874;28;20385;-65
2022/07/27 08:00:47;;;;;;;3.90;3.60;;;;;;;;;;5015905;28;20514;-65
2022/07/27 08:03:13;;;;;;;3.37;3.07;;;;;;;;;;5015235;28;20515;-67
2022/07/27 08:05:39;;;;;;;4.00;3.70;;;;;;;;;;5015449;28;20422;-67
2022/07/27 08:08:05;;;;;;;2.53;2.43;;;;;;;;;;5015738;28;20379;-64
2022/07/27 08:10:32;;;;;;;3.10;2.90;;;;;;;;;;5015801;28;20434;-64
2022/07/27 08:12:58;;;;;;;3.90;3.60;;;;;;;;;;5015124;28;20629;-66
2022/07/27 08:15:24;;;;;;;3.00;2.80;;;;;;;;;;5015692;28;20945;-65
2022/07/27 08:17:51;;;;;;;5.70;3.73;;;;;;;;;;5015490;28;20489;-67
2022/07/27 08:20:18;;;;;;;2.70;2.50;;;;;;;;;;5015184;28;20505;-64
2022/07/27 08:22:45;;;;;;;4.00;3.70;;;;;;;;;;5015146;28;20461;-64
2022/07/27 08:25:11;;;;;;;3.57;3.27;;;20.90;99.90;;;;;;5015265;28;20422;-67
2022/07/27 08:27:38;;;;;;;3.33;3.13;;;;;;;;;;5015481;28;20385;-66
2022/07/27 08:30:05;;;;;;;4.00;3.20;;;24.30;93.20;;;;;;5015431;28;20377;-67
2022/07/27 08:32:31;;;;;;;3.40;3.20;;;;;;;;;;5014635;28;20968;-66
2022/07/27 08:34:57;;;;;;;3.43;3.23;;;;;;;;;;5015189;28;20437;-66
2022/07/27 08:37:23;;;;;;;3.20;3.00;;;;;;;;;;5015199;28;20377;-68
2022/07/27 08:39:49;;;;;;;3.50;3.20;;;24.30;92.50;;;;;;5015165;28;20834;-65
2022/07/27 08:42:16;;;;;;;3.70;3.50;;;25.10;91.50;;;;;;5014709;28;20380;-65
2022/07/27 08:44:43;;;;;;;3.40;3.10;;;25.40;91.00;;;;;;5014536;28;20824;-64
2022/07/27 08:47:09;;;;;;;3.30;3.03;;;25.70;90.80;;;;;;5015115;28;20393;-64
2022/07/27 08:49:38;;;;;;;3.20;3.00;;;25.70;90.10;;;;;;5013792;28;20424;-64
2022/07/27 08:52:04;;;;;;;4.63;3.20;;;25.80;89.50;;;;;;5015095;28;20400;-65
2022/07/27 08:54:30;;;;;;;3.67;3.37;;;26.10;89.10;;;;;;5013010;28;20415;-65
2022/07/27 08:56:56;;;;;;;3.57;3.27;;;26.40;87.80;;;;;;5014565;28;20175;-64
2022/07/27 08:59:21;;;;;;;3.77;3.47;;;26.70;86.90;;;;;;5014366;28;20206;-64
2022/07/27 09:01:47;;;;;;;3.20;3.00;;;26.70;86.40;;;;;;5014846;28;20594;-64
2022/07/27 09:04:12;;;;;;;4.10;3.20;;;26.80;86.30;;;;;;5014125;28;20256;-65
2022/07/27 09:06:56;;;;;;;3.57;3.30;;;26.80;86.00;;;;;;5014822;28;20516;-65
2022/07/27 09:09:22;;;;;;;3.00;2.80;;;26.80;83.60;;;;;;5014417;28;20196;-65
2022/07/27 09:12:07;;;;;;;3.10;2.90;;;26.70;83.80;;;;;;5014349;28;20977;-65
2022/07/27 09:14:35;;;;;;;3.30;3.10;;;26.50;85.70;;;;;;5014232;28;20194;-63
2022/07/27 09:17:19;;;;;;;4.00;3.17;;;26.60;85.40;;;;;;5014348;28;20980;-65
2022/07/27 09:19:59;;;;;;;3.63;3.43;;;26.90;85.40;;;;;;5014520;28;20442;-65
2022/07/27 09:22:51;;;;;;;4.57;3.13;;;27.20;83.00;;;;;;5013876;28;20381;-65
2022/07/27 09:25:20;;;;;;;3.60;3.30;;;27.40;82.70;;;;;;5014042;28;20415;-64
2022/07/27 09:27:48;;;;;;;3.63;3.37;;;27.70;82.50;;;;;;5014293;28;20920;-64
2022/07/27 09:30:19;;;;;;;3.50;3.30;;;28.10;82.00;;;;;;5014295;28;20932;-65
2022/07/27 09:32:59;;;;;;;3.53;3.33;;;28.60;81.80;;;;;;5013992;28;20401;-64
2022/07/27 09:35:29;;;;;;;3.60;3.40;;;29.10;79.10;;;;;;5014233;28;20424;-65
2022/07/27 09:38:14;;;;;;;3.83;3.40;;;28.80;78.30;;;;;;5014307;28;20902;-64
2022/07/27 09:40:40;;;;;;;3.17;2.97;;;29.00;77.90;;;;;;5014027;28;20447;-64
2022/07/27 09:43:11;;;;;;;3.20;3.00;;;29.20;78.00;;;;;;5013965;28;20422;-65
2022/07/27 09:45:38;;;;;;;3.73;3.30;;;29.80;76.60;;;;;;5014056;28;20172;-63
2022/07/27 09:48:18;;;;;;;3.53;3.23;;;30.10;74.10;;;;;;5013834;28;20437;-65
2022/07/27 09:51:01;;;;;;;3.40;3.10;;;30.00;73.60;;;;;;5013773;28;20501;-65
2022/07/27 09:53:31;;;;;;;3.93;3.63;;;30.00;74.30;;;;;;5013248;28;20415;-64
2022/07/27 09:56:12;;;;;;;5.87;3.00;;;29.70;74.00;;;;;;5013731;28;20405;-64
2022/07/27 09:58:40;;;;;;;2.97;2.77;;;29.70;74.30;;;;;;5013571;28;20414;-64
2022/07/27 10:01:16;;;;;;;3.40;3.03;;;29.60;75.00;;;;;;5013502;28;20447;-64
2022/07/27 10:03:43;;;;;;;3.33;3.13;;;29.70;73.90;;;;;;5013159;28;20901;-64
2022/07/27 10:06:09;;;;;;;3.60;3.40;;;29.90;73.40;;;;;;5013491;28;20459;-64
2022/07/27 10:08:37;;;;;;;3.70;3.40;;;30.30;72.80;;;;;;5013606;28;20377;-65
2022/07/27 10:11:03;;;;;;;3.33;3.13;;;30.90;71.20;;;;;;5013600;28;20400;-65
2022/07/27 10:13:28;;;;;;;3.27;3.13;;;31.70;69.40;;;;;;5013060;28;21007;-64
2022/07/27 10:15:54;;;;;;;4.00;3.70;;;32.40;67.60;;;;;;5013643;28;20424;-65
2022/07/27 10:18:41;;;;;;;3.30;3.10;;;32.70;65.60;;;;;;5013474;28;20175;-66
2022/07/27 10:21:09;;;;;;;4.23;3.40;;;;;;;;;;5013547;28;20450;-66
2022/07/27 10:23:37;;;;;;;3.77;3.57;;;33.30;64.00;;;;;;5013237;28;20449;-65
2022/07/27 10:26:25;;;;;;;3.53;3.33;;;34.20;60.80;;;;;;5012539;28;20420;-65
2022/07/27 10:29:02;;;;;;;3.40;3.20;;;34.90;59.30;;;;;;5013448;28;20437;-65
2022/07/27 10:31:36;;;;;;;3.50;3.30;;;35.60;58.40;;;;;;5013528;28;20781;-65
2022/07/27 10:34:05;;;;;;;3.93;3.73;;;35.70;58.00;;;;;;5012945;28;20902;-65
2022/07/27 10:36:31;;;;;;;3.50;3.30;;;35.90;56.80;;;;;;5013382;28;20464;-65
2022/07/27 10:38:58;;;;;;;3.30;2.90;;;36.10;56.80;;;;;;5013183;28;20410;-65
2022/07/27 10:41:31;;;;;;;3.20;3.00;;;36.30;56.10;;;;;;5013183;28;20175;-64
2022/07/27 10:44:17;;;;;;;3.40;3.20;;;36.00;55.60;;;;;;5012834;28;20433;-64
2022/07/27 10:46:45;;;;;;;2.97;2.77;;;35.80;55.00;;;;;;5012585;28;20429;-68
2022/07/27 10:49:17;;;;;;;3.57;3.37;;;35.00;56.30;;;;;;5013391;28;20920;-69
2022/07/27 10:51:43;;;;;;;3.33;3.13;;;34.30;56.70;;;;;;5013060;28;20402;-67
2022/07/27 10:54:29;;;;;;;4.10;2.80;;;34.00;57.00;;;;;;5012797;28;20429;-68
2022/07/27 10:56:56;;;;;;;3.60;3.33;;;33.40;56.40;;;;;;5013302;28;20258;-67
2022/07/27 10:59:37;;;;;;;10.77;4.43;;;32.50;56.80;;;;;;5013131;28;20485;-66
2022/07/27 11:02:04;;;;;;;4.60;3.83;;;31.70;57.20;;;;;;5012944;28;20398;-66
2022/07/27 11:04:31;;;;;;;3.20;2.70;;;31.10;57.60;;;;;;5012560;28;20426;-67
2022/07/27 11:07:01;;;;;;;6.50;2.63;;;30.80;58.10;;;;;;5013062;28;20740;-66
2022/07/27 11:09:37;;;;;;;2.40;2.30;;;30.70;59.00;;;;;;5013464;28;20424;-68
2022/07/27 11:12:08;;;;;;;2.47;2.37;;;31.10;59.80;;;;;;5013320;28;20471;-66
2022/07/27 11:14:52;;;;;;;3.27;2.77;;;31.40;58.80;;;;;;5016586;28;20499;-66
2022/07/27 11:17:20;;;;;;;2.97;2.77;;;31.80;57.60;;;;;;5016666;28;20789;-67
2022/07/27 11:19:59;;;;;;;2.63;2.50;;;31.90;56.80;;;;;;5016727;28;20457;-67
2022/07/27 11:22:40;;;;;;;2.77;2.60;;;31.40;57.20;;;;;;5016707;28;20894;-65
2022/07/27 11:25:06;;;;;;;2.57;2.37;;;30.80;58.50;;;;;;5017149;28;20512;-65
2022/07/27 11:27:44;;;;;;;2.13;2.03;;;30.30;59.10;;;;;;5018400;28;20460;-65
2022/07/27 11:30:30;;;;;;;2.77;2.20;;;29.80;59.50;;;;;;5017659;28;20409;-69
2022/07/27 11:32:56;;;;;;;2.67;2.57;;;29.30;59.90;;;;;;5017104;28;20452;-69
2022/07/27 11:35:22;;;;;;;2.60;2.43;;;29.20;61.40;;;;;;5018066;28;20421;-67
2022/07/27 11:38:03;;;;;;;1.83;1.73;;;29.00;61.40;;;;;;5016240;28;20601;-68
2022/07/27 11:40:42;;;;;;;2.80;2.53;;;28.90;60.40;;;;;;5016323;28;20432;-66
2022/07/27 11:43:08;;;;;;;2.50;2.40;;;28.70;62.50;;;;;;5015982;28;20721;-68
2022/07/27 11:45:38;;;;;;;2.43;2.33;;;28.50;62.50;;;;;;5012189;28;20389;-67
2022/07/27 11:48:08;;;;;;;2.80;2.70;;;28.40;61.90;;;;;;5009091;28;20521;-65
2022/07/27 11:50:34;;;;;;;2.17;2.07;;;28.20;60.10;;;;;;5016540;28;20745;-69
2022/07/27 11:52:59;;;;;;;2.17;2.07;;;28.10;60.10;;;;;;5015729;28;20440;-66
2022/07/27 11:55:25;;;;;;;2.50;2.40;;;27.90;59.80;;;;;;5015987;28;20162;-68
2022/07/27 11:57:51;;;;;;;2.77;2.57;;;27.80;61.60;;;;;;5015875;28;20186;-69
2022/07/27 12:00:16;;;;;;;2.43;2.27;;;27.70;62.10;;;;;;5015911;28;20191;-68
2022/07/27 12:02:49;;;;;;;2.53;2.33;;;27.70;62.60;;;;;;5015503;28;20261;-69
2022/07/27 12:05:15;;;;;;;1.70;1.60;;;27.70;63.70;;;;;;5015548;28;20570;-69
2022/07/27 12:07:42;;;;;;;2.33;2.23;;;27.60;64.40;;;;;;5015748;28;20383;-69
2022/07/27 12:10:09;;;;;;;2.63;2.43;;;27.30;65.00;;;;;;5015907;28;20175;-67
2022/07/27 12:12:36;;;;;;;2.33;2.20;;;26.90;66.20;;;;;;5015243;28;20385;-66
2022/07/27 12:15:15;;;;;;;2.23;2.13;;;26.80;67.30;;;;;;5015360;28;20461;-67
2022/07/27 12:17:42;;;;;;;2.03;1.93;;;26.70;67.70;;;;;;5015021;28;20430;-66
2022/07/27 12:20:13;;;;;;;2.33;2.23;;;26.80;68.30;;;;;;5015366;28;20463;-67
2022/07/27 12:22:50;;;;;;;2.37;2.20;;;26.80;66.50;;;;;;5014904;28;20392;-67
2022/07/27 12:25:15;;;;;;;2.60;2.43;;;26.70;66.20;;;;;;5014785;28;20426;-67
2022/07/27 12:28:11;;;;;;;2.20;2.10;;;26.60;66.20;;;;;;5015129;28;20506;-66
2022/07/27 12:30:44;;;;;;;2.10;2.00;;;26.40;66.10;;;;;;5014076;28;20172;-66
2022/07/27 12:33:35;;;;;;;2.10;2.00;;;26.50;67.00;;;;;;5014688;28;20877;-65
2022/07/27 12:36:05;;;;;;;3.00;1.90;;;26.60;65.40;;;;;;5015035;28;20834;-65
2022/07/27 12:38:47;;;;;;;3.37;1.90;;;26.70;65.00;;;;;;5015130;28;20370;-66
2022/07/27 12:41:28;;;;;;;2.33;1.97;;;26.70;64.20;;;;;;5014069;28;20977;-65
2022/07/27 12:44:32;;;;;;;2.40;2.00;;;26.70;65.50;;;;;;5014743;28;20427;-65
2022/07/27 12:47:39;;;;;;;1.80;1.70;;;27.00;64.60;;;;;;5014823;28;20914;-66
2022/07/27 12:49:58;;;;;;;3.90;2.13;;;27.20;63.20;;;;;;5014865;28;20489;-67
2022/07/27 12:52:24;;;;;;;2.10;2.00;;;27.40;62.90;;;;;;5014721;28;20410;-67
2022/07/27 12:54:50;;;;;;;2.27;2.17;;;27.50;62.60;;;;;;5014920;28;20415;-67
2022/07/27 12:57:15;;;;;;;1.90;1.83;;;27.50;61.60;;;;;;5014982;28;20260;-65
2022/07/27 12:59:44;;;;;;;2.13;2.00;;;27.30;61.50;;;;;;5014703;28;20563;-66
2022/07/27 13:02:10;;;;;;;2.27;1.87;;;27.10;62.60;;;;;;5014735;28;20230;-66
2022/07/27 13:04:35;;;;;;;1.90;1.80;;;27.00;61.30;;;;;;5014471;28;20844;-67
2022/07/27 13:07:01;;;;;;;4.53;1.77;;;27.00;61.60;;;;;;5014717;28;20279;-67
2022/07/27 13:09:27;;;;;;;2.07;1.97;;;26.90;61.50;;;;;;5014599;28;20652;-66
2022/07/27 13:11:53;;;;;;;1.77;1.67;;;26.80;61.50;;;;;;5014511;28;20183;-67
2022/07/27 13:14:19;;;;;;;2.13;1.93;;;26.80;63.40;;;;;;5014260;28;20199;-67
2022/07/27 13:16:45;;;;;;;2.00;1.90;;;26.80;63.20;;;;;;5014562;28;20403;-67
2022/07/27 13:19:13;;;;;;;1.57;1.57;;;26.90;62.00;;;;;;5014445;28;20413;-66
2022/07/27 13:21:39;;;;;;;3.27;2.30;;;26.80;62.20;;;;;;5014350;28;20179;-66
2022/07/27 13:24:08;;;;;;;2.47;2.37;;;26.80;62.60;;;;;;5014008;28;20480;-66
2022/07/27 13:26:35;;;;;;;1.73;1.63;;;26.80;63.20;;;;;;5014254;28;20397;-67
2022/07/27 13:29:00;;;;;;;2.17;2.00;;;26.60;63.90;;;;;;5012661;28;20407;-67
2022/07/27 13:31:26;;;;;;;1.80;1.70;;;26.40;63.70;;;;;;5013228;28;20472;-66
2022/07/27 13:33:52;;;;;;;2.00;1.90;;;26.30;65.40;;;;;;5013653;28;20245;-67
2022/07/27 13:36:17;;;;;;;1.87;1.77;;;26.30;65.10;;;;;;5013643;28;20685;-66
2022/07/27 13:38:43;;;;;;;5.80;2.10;;;26.30;63.40;;;;;;5013949;28;20205;-67
2022/07/27 13:41:09;;;;;;;1.93;1.83;;;26.30;63.70;;;;;;5014001;28;20736;-66
2022/07/27 13:43:34;;;;;;;2.43;2.30;;;26.10;63.20;;;;;;5013587;28;20217;-66
2022/07/27 13:46:02;;;;;;;2.03;1.93;;;26.00;63.70;;;;;;5014033;28;20380;-66
2022/07/27 13:48:28;;;;;;;2.03;1.93;;;25.90;65.30;;;;;;5013829;28;20179;-66
2022/07/27 13:50:53;;;;;;;1.70;1.60;;;25.90;63.90;;;;;;5012731;28;20425;-67
2022/07/27 13:53:19;;;;;;;1.90;1.80;;;25.90;64.50;;;;;;5013500;28;20432;-66
2022/07/27 13:55:45;;;;;;;2.00;1.90;;;26.10;65.10;;;;;;5013825;28;20171;-66
2022/07/27 13:58:11;;;;;;;2.60;2.40;;;26.10;66.20;;;;;;5014155;28;20174;-66
2022/07/27 14:00:38;;;;;;;2.10;2.00;;;26.20;65.30;;;;;;5013979;28;20264;-67
2022/07/27 14:03:04;;;;;;;2.00;1.90;;;26.20;64.70;;;;;;5013415;28;20385;-66
2022/07/27 14:05:30;;;;;;;2.87;2.30;;;26.00;65.10;;;;;;5013557;28;20926;-66
2022/07/27 14:07:56;;;;;;;4.20;2.60;;;25.90;65.70;;;;;;5013728;28;20389;-67
2022/07/27 14:10:30;;;;;;;2.50;2.30;;;25.90;66.60;;;;;;5013758;28;20584;-67
2022/07/27 14:13:11;;;;;;;2.60;2.03;;;25.90;65.90;;;;;;5013461;28;20177;-67
2022/07/27 14:15:38;;;;;;;2.00;1.80;;;26.00;65.20;;;;;;5013747;28;20446;-67
2022/07/27 14:18:04;;;;;;;2.10;1.73;;;26.10;65.30;;;;;;5014243;28;20926;-67
2022/07/27 14:20:30;;;;;;;2.10;2.00;;;26.10;64.50;;;;;;5013639;28;20428;-67
2022/07/27 14:22:56;;;;;;;2.50;2.40;;;25.90;64.70;;;;;;5013263;28;20745;-67
2022/07/27 14:25:21;;;;;;;1.70;1.60;;;25.90;64.80;;;;;;5013619;28;20389;-67
2022/07/27 14:27:47;;;;;;;1.70;1.63;;;25.90;66.00;;;;;;5012356;28;20232;-65
2022/07/27 14:30:13;;;;;;;2.10;2.00;;;25.90;66.60;;;;;;5013461;28;20185;-66
2022/07/27 14:32:38;;;;;;;2.40;2.10;;;25.90;66.50;;;;;;5013294;28;20183;-66
2022/07/27 14:35:05;;;;;;;2.17;2.07;;;25.90;67.10;;;;;;5012200;28;20210;-67
2022/07/27 14:37:33;;;;;;;2.23;2.13;;;25.90;68.00;;;;;;5013533;28;20186;-66
2022/07/27 14:39:59;;;;;;;1.90;1.80;;;25.90;67.10;;;;;;5013273;28;20952;-66
2022/07/27 14:42:24;;;;;;;2.17;1.97;;;25.80;66.90;;;;;;5013176;28;20380;-66
2022/07/27 14:44:50;;;;;;;1.83;1.73;;;25.80;67.50;;;;;;5013265;28;20509;-67
2022/07/27 14:47:16;;;;;;;2.27;2.17;;;25.80;66.50;;;;;;5013703;28;20195;-67
2022/07/27 14:49:42;;;;;;;2.07;1.97;;;25.70;66.10;;;;;;5017590;28;20185;-66
2022/07/27 14:52:12;;;;;;;2.00;1.90;;;25.70;66.40;;;;;;5016882;28;20447;-67
2022/07/27 14:54:42;;;;;;;1.67;1.57;;;25.70;66.20;;;;;;5016954;28;20191;-66
2022/07/27 14:57:07;;;;;;;6.97;2.10;;;25.60;66.10;;;;;;5017181;28;20480;-67
2022/07/27 14:59:33;;;;;;;1.53;1.43;;;25.70;66.40;;;;;;5017103;28;20529;-67
2022/07/27 15:01:59;;;;;;;1.90;1.80;;;25.70;65.90;;;;;;5016962;28;20178;-66
2022/07/27 15:04:24;;;;;;;2.20;2.10;;;25.70;65.20;;;;;;5016511;28;20495;-66
2022/07/27 15:06:50;;;;;;;2.60;2.43;;;25.80;65.40;;;;;;5017164;28;20222;-67
2022/07/27 15:09:16;;;;;;;2.40;1.60;;;25.80;64.90;;;;;;5016818;28;20254;-66
2022/07/27 15:11:42;;;;;;;1.70;1.60;;;25.80;64.70;;;;;;5016739;28;20248;-66
2022/07/27 15:14:07;;;;;;;2.00;1.90;;;25.80;66.10;;;;;;5016452;28;20199;-66
2022/07/27 15:16:33;;;;;;;1.80;1.70;;;25.70;66.00;;;;;;5016698;28;20383;-67
2022/07/27 15:18:59;;;;;;;1.80;1.70;;;25.80;66.60;;;;;;5016913;28;20171;-67
2022/07/27 15:21:25;;;;;;;1.73;1.63;;;25.80;66.20;;;;;;5016717;28;20817;-67
2022/07/27 15:23:51;;;;;;;2.27;2.17;;;25.90;65.50;;;;;;5016486;28;20199;-66
2022/07/27 15:26:16;;;;;;;1.53;1.43;;;25.80;65.80;;;;;;5016683;28;20395;-66
2022/07/27 15:28:42;;;;;;;2.10;1.90;;;25.80;67.00;;;;;;5016390;28;20175;-67
2022/07/27 15:31:08;;;;;;;1.63;1.53;;;25.90;66.20;;;;;;5016509;28;20194;-66
2022/07/27 15:33:34;;;;;;;2.40;2.00;;;25.90;64.90;;;;;;5016031;28;20278;-66
2022/07/27 15:36:00;;;;;;;2.00;1.90;;;25.90;65.40;;;;;;5016300;28;20406;-66
2022/07/27 15:38:25;;;;;;;2.07;1.97;;;25.80;65.50;;;;;;5016302;28;20810;-66
2022/07/27 15:40:51;;;;;;;10.60;2.17;;;25.80;66.00;;;;;;5016296;28;20207;-66
2022/07/27 15:43:17;;;;;;;2.10;1.97;;;25.70;64.50;;;;;;5015746;28;20167;-66
2022/07/27 15:45:48;;;;;;;2.90;1.80;;;25.60;64.50;;;;;;5016061;28;20218;-66
2022/07/27 15:48:15;;;;;;;1.87;1.77;;;25.50;65.20;;;;;;5016222;28;20464;-66
2022/07/27 15:50:44;;;;;;;1.93;1.83;;;25.50;65.00;;;;;;5014746;28;20380;-66
2022/07/27 15:53:11;;;;;;;2.00;1.90;;;25.50;66.10;;;;;;5015578;28;20772;-66
2022/07/27 15:55:37;;;;;;;2.17;2.03;;;25.40;66.40;;;;;;5016127;28;20400;-66
2022/07/27 15:58:05;;;;;;;1.93;1.83;;;25.40;65.50;;;;;;5015491;28;20825;-66
2022/07/27 16:00:30;;;;;;;2.07;1.97;;;25.40;66.80;;;;;;5015733;28;20449;-66
2022/07/27 16:02:56;;;;;;;1.87;1.77;;;25.40;65.40;;;;;;5015537;28;20416;-66
2022/07/27 16:05:22;;;;;;;1.90;1.80;;;25.30;65.30;;;;;;5015588;28;20214;-66
2022/07/27 16:07:48;;;;;;;1.60;1.50;;;25.30;65.40;;;;;;5015798;28;20173;-66
2022/07/27 16:10:14;;;;;;;2.00;1.90;;;25.30;66.50;;;;;;5015765;28;20406;-66
2022/07/27 16:12:40;;;;;;;3.97;2.13;;;25.30;66.50;;;;;;5015354;28;21012;-66
2022/07/27 16:15:06;;;;;;;1.80;1.70;;;25.30;66.50;;;;;;5015495;28;20403;-67
2022/07/27 16:17:33;;;;;;;1.57;1.47;;;25.20;67.10;;;;;;5015617;28;20257;-67
2022/07/27 16:19:59;;;;;;;1.47;1.40;;;25.10;67.00;;;;;;5015498;28;20430;-66
2022/07/27 16:22:25;;;;;;;2.07;1.97;;;25.00;67.00;;;;;;5015303;28;20391;-65
2022/07/27 16:24:51;;;;;;;1.57;1.47;;;24.90;67.30;;;;;;5015256;28;20730;-67
2022/07/27 16:27:17;;;;;;;1.87;1.77;;;24.80;68.20;;;;;;5015357;28;20472;-67
2022/07/27 16:29:42;;;;;;;2.17;2.07;;;24.80;67.80;;;;;;5015604;28;20384;-66
2022/07/27 16:32:08;;;;;;;1.90;1.80;;;24.80;67.90;;;;;;5015127;28;20195;-67
2022/07/27 16:34:34;;;;;;;3.10;2.23;;;24.80;67.70;;;;;;5015484;28;20683;-67
2022/07/27 16:37:00;;;;;;;2.07;1.97;;;24.70;68.60;;;;;;5015523;28;20666;-66
2022/07/27 16:39:26;;;;;;;1.90;1.80;;;24.70;68.50;;;;;;5015235;28;20577;-67
2022/07/27 16:41:52;;;;;;;1.97;1.87;;;24.60;68.30;;;;;;5014731;28;20169;-66
2022/07/27 16:44:19;;;;;;;4.47;1.80;;;24.60;69.20;;;;;;5014348;28;20931;-66
2022/07/27 16:46:46;;;;;;;1.93;1.83;;;24.50;69.60;;;;;;5014832;28;20195;-67
2022/07/27 16:49:13;;;;;;;1.60;1.50;;;24.50;69.20;;;;;;5014465;28;20406;-64
2022/07/27 16:51:39;;;;;;;2.30;1.87;;;24.50;69.10;;;;;;5014691;28;21001;-67
2022/07/27 16:54:05;;;;;;;1.67;1.57;;;24.50;68.90;;;;;;5013734;28;20483;-67
2022/07/27 16:56:31;;;;;;;1.70;1.60;;;24.50;69.30;;;;;;5013700;28;20407;-67
2022/07/27 16:58:57;;;;;;;1.80;1.70;;;24.50;69.40;;;;;;5014769;28;20372;-67
2022/07/27 17:01:22;;;;;;;1.90;1.80;;;24.50;69.20;;;;;;5014634;28;20509;-69
2022/07/27 17:03:48;;;;;;;2.13;2.03;;;24.50;69.20;;;;;;5014060;28;20190;-67
2022/07/27 17:06:15;;;;;;;2.33;2.13;;;24.50;68.80;;;;;;5014649;28;20190;-66
2022/07/27 17:08:41;;;;;;;1.70;1.60;;;24.40;68.80;;;;;;5014711;28;20278;-63
2022/07/27 17:11:07;;;;;;;2.00;1.50;;;24.40;69.10;;;;;;5013508;28;20381;-64
2022/07/27 17:13:37;;;;;;;1.70;1.60;;;24.40;69.20;;;;;;5014053;28;20429;-67